sensor_id;sensor_type;location;lat;lon;timestamp;pressure;altitude;pressure_sealevel;temperature;humidity
8298;BME280;4187;42.778;23.242;2022-08-23T00:02:25;94733.53;;;18.96;100.00
8298;BME280;4187;42.778;23.242;2022-08-23T00:04:52;94713.78;;;18.84;100.00
8298;BME280;4187;42.778;23.242;2022-08-23T00:07:19;94736.19;;;18.96;100.00
8298;BME280;4187;42.778;23.242;2022-08-23T00:09:48;94741.53;;;18.90;100.00
8298;BME280;4187;42.778;23.242;2022-08-23T00:12:18;94745.66;;;18.92;100.00
8298;BME280;4187;42.778;23.242;2022-08-23T00:14:48;94743.63;;;18.88;100.00
8298;BME280;4187;42.778;23.242;2022-08-23T00:17:16;94753.06;;;18.90;100.00
8298;BME280;4187;42.778;23.242;2022-08-23T00:19:43;94751.03;;;18.79;100.00
8298;BME280;4187;42.778;23.242;2022-08-23T00:22:11;94755.75;;;18.71;100.00
8298;BME280;4187;42.778;23.242;2022-08-23T00:24:39;94750.63;;;18.63;100.00
8298;BME280;4187;42.778;23.242;2022-08-23T00:27:09;94749.41;;;18.59;100.00
8298;BME280;4187;42.778;23.242;2022-08-23T00:29:40;94742.03;;;18.54;100.00
8298;BME280;4187;42.778;23.242;2022-08-23T00:32:10;94737.09;;;18.51;100.00
8298;BME280;4187;42.778;23.242;2022-08-23T00:34:37;94744.06;;;18.52;100.00
8298;BME280;4187;42.778;23.242;2022-08-23T00:37:06;94756.56;;;18.45;100.00
8298;BME280;4187;42.778;23.242;2022-08-23T00:39:34;94751.84;;;18.34;100.00
8298;BME280;4187;42.778;23.242;2022-08-23T00:42:06;94757.81;;;18.42;100.00
8298;BME280;4187;42.778;23.242;2022-08-23T00:44:56;94758.22;;;18.46;100.00
8298;BME280;4187;42.778;23.242;2022-08-23T00:47:42;94757.19;;;18.47;100.00
8298;BME280;4187;42.778;23.242;2022-08-23T00:50:17;94753.94;;;18.52;100.00
8298;BME280;4187;42.778;23.242;2022-08-23T00:52:51;94747.97;;;18.56;100.00
8298;BME280;4187;42.778;23.242;2022-08-23T00:55:20;94752.50;;;18.49;100.00
8298;BME280;4187;42.778;23.242;2022-08-23T00:57:47;94756.34;;;18.46;100.00
8298;BME280;4187;42.778;23.242;2022-08-23T01:00:16;94759.22;;;18.38;100.00
8298;BME280;4187;42.778;23.242;2022-08-23T01:02:44;94760.88;;;18.39;100.00
8298;BME280;4187;42.778;23.242;2022-08-23T01:05:12;94755.34;;;18.34;100.00
8298;BME280;4187;42.778;23.242;2022-08-23T01:07:45;94760.28;;;18.37;100.00
8298;BME280;4187;42.778;23.242;2022-08-23T01:10:20;94761.72;;;18.40;100.00
8298;BME280;4187;42.778;23.242;2022-08-23T01:12:54;94751.84;;;18.40;100.00
8298;BME280;4187;42.778;23.242;2022-08-23T01:15:26;94760.91;;;18.52;100.00
8298;BME280;4187;42.778;23.242;2022-08-23T01:17:57;94760.50;;;18.56;100.00
8298;BME280;4187;42.778;23.242;2022-08-23T01:20:31;94760.94;;;18.59;100.00
8298;BME280;4187;42.778;23.242;2022-08-23T01:23:05;94739.94;;;18.49;100.00
8298;BME280;4187;42.778;23.242;2022-08-23T01:25:36;94762.56;;;18.60;100.00
8298;BME280;4187;42.778;23.242;2022-08-23T01:28:03;94768.53;;;18.62;100.00
8298;BME280;4187;42.778;23.242;2022-08-23T01:30:31;94779.84;;;18.64;100.00
8298;BME280;4187;42.778;23.242;2022-08-23T01:33:01;94775.72;;;18.62;100.00
8298;BME280;4187;42.778;23.242;2022-08-23T01:35:33;94779.00;;;18.64;100.00
8298;BME280;4187;42.778;23.242;2022-08-23T01:38:01;94776.34;;;18.64;100.00
8298;BME280;4187;42.778;23.242;2022-08-23T01:40:28;94770.78;;;18.59;100.00
8298;BME280;4187;42.778;23.242;2022-08-23T01:42:59;94770.78;;;18.52;100.00
8298;BME280;4187;42.778;23.242;2022-08-23T01:45:27;94771.19;;;18.56;100.00
8298;BME280;4187;42.778;23.242;2022-08-23T01:47:54;94765.03;;;18.55;100.00
8298;BME280;4187;42.778;23.242;2022-08-23T01:50:21;94768.34;;;18.57;100.00
8298;BME280;4187;42.778;23.242;2022-08-23T01:52:49;94757.44;;;18.59;100.00
8298;BME280;4187;42.778;23.242;2022-08-23T01:55:16;94734.19;;;18.46;100.00
8298;BME280;4187;42.778;23.242;2022-08-23T01:57:44;94756.19;;;18.61;100.00
8298;BME280;4187;42.778;23.242;2022-08-23T02:00:14;94750.03;;;18.61;100.00
8298;BME280;4187;42.778;23.242;2022-08-23T02:02:41;94748.19;;;18.61;100.00
8298;BME280;4187;42.778;23.242;2022-08-23T02:05:08;94746.75;;;18.65;100.00
8298;BME280;4187;42.778;23.242;2022-08-23T02:07:35;94748.78;;;18.70;100.00
8298;BME280;4187;42.778;23.242;2022-08-23T02:10:03;94751.88;;;18.73;100.00
8298;BME280;4187;42.778;23.242;2022-08-23T02:12:30;94752.06;;;18.78;100.00
8298;BME280;4187;42.778;23.242;2022-08-23T02:14:57;94753.69;;;18.79;100.00
8298;BME280;4187;42.778;23.242;2022-08-23T02:17:25;94757.81;;;18.82;100.00
8298;BME280;4187;42.778;23.242;2022-08-23T02:19:52;94760.28;;;18.83;100.00
8298;BME280;4187;42.778;23.242;2022-08-23T02:22:20;94756.38;;;18.86;100.00
8298;BME280;4187;42.778;23.242;2022-08-23T02:24:47;94754.53;;;18.86;100.00
8298;BME280;4187;42.778;23.242;2022-08-23T02:27:15;94755.13;;;18.88;100.00
8298;BME280;4187;42.778;23.242;2022-08-23T02:29:43;94754.72;;;18.91;100.00
8298;BME280;4187;42.778;23.242;2022-08-23T02:32:12;94749.97;;;18.93;100.00
8298;BME280;4187;42.778;23.242;2022-08-23T02:34:41;94745.25;;;18.95;100.00
8298;BME280;4187;42.778;23.242;2022-08-23T02:37:10;94724.72;;;18.76;100.00
8298;BME280;4187;42.778;23.242;2022-08-23T02:39:37;94755.94;;;18.95;100.00
8298;BME280;4187;42.778;23.242;2022-08-23T02:42:05;94755.56;;;18.92;100.00
8298;BME280;4187;42.778;23.242;2022-08-23T02:44:32;94765.41;;;18.91;100.00
8298;BME280;4187;42.778;23.242;2022-08-23T02:47:00;94752.69;;;18.87;100.00
8298;BME280;4187;42.778;23.242;2022-08-23T02:49:27;94763.97;;;18.89;100.00
8298;BME280;4187;42.778;23.242;2022-08-23T02:51:55;94765.22;;;18.86;100.00
8298;BME280;4187;42.778;23.242;2022-08-23T02:54:22;94768.50;;;18.82;100.00
8298;BME280;4187;42.778;23.242;2022-08-23T02:56:49;94774.88;;;18.87;100.00
8298;BME280;4187;42.778;23.242;2022-08-23T02:59:17;94773.25;;;18.86;100.00
8298;BME280;4187;42.778;23.242;2022-08-23T03:01:44;94766.06;;;18.87;100.00
8298;BME280;4187;42.778;23.242;2022-08-23T03:04:11;94774.50;;;18.84;100.00
8298;BME280;4187;42.778;23.242;2022-08-23T03:06:38;94759.47;;;18.89;100.00
8298;BME280;4187;42.778;23.242;2022-08-23T03:09:07;94764.41;;;18.79;100.00
8298;BME280;4187;42.778;23.242;2022-08-23T03:11:34;94764.41;;;18.79;100.00
8298;BME280;4187;42.778;23.242;2022-08-23T03:14:01;94731.50;;;18.46;100.00
8298;BME280;4187;42.778;23.242;2022-08-23T03:16:28;94756.81;;;18.70;100.00
8298;BME280;4187;42.778;23.242;2022-08-23T03:18:55;94755.19;;;18.62;100.00
8298;BME280;4187;42.778;23.242;2022-08-23T03:21:22;94751.25;;;18.58;100.00
8298;BME280;4187;42.778;23.242;2022-08-23T03:23:49;94750.25;;;18.59;100.00
8298;BME280;4187;42.778;23.242;2022-08-23T03:26:17;94759.88;;;18.67;100.00
8298;BME280;4187;42.778;23.242;2022-08-23T03:28:45;94755.56;;;18.66;100.00
8298;BME280;4187;42.778;23.242;2022-08-23T03:31:13;94754.13;;;18.63;100.00
8298;BME280;4187;42.778;23.242;2022-08-23T03:33:40;94762.16;;;18.63;100.00
8298;BME280;4187;42.778;23.242;2022-08-23T03:36:09;94757.44;;;18.65;100.00
8298;BME280;4187;42.778;23.242;2022-08-23T03:38:38;94754.97;;;18.64;100.00
8298;BME280;4187;42.778;23.242;2022-08-23T03:41:06;94755.19;;;18.62;100.00
8298;BME280;4187;42.778;23.242;2022-08-23T03:43:35;94755.97;;;18.63;100.00
8298;BME280;4187;42.778;23.242;2022-08-23T03:46:03;94755.97;;;18.63;100.00
8298;BME280;4187;42.778;23.242;2022-08-23T03:48:31;94757.63;;;18.64;100.00
8298;BME280;4187;42.778;23.242;2022-08-23T03:50:57;94765.03;;;18.62;100.00
8298;BME280;4187;42.778;23.242;2022-08-23T03:53:24;94775.50;;;18.63;100.00
8298;BME280;4187;42.778;23.242;2022-08-23T03:55:52;94772.44;;;18.60;100.00
8298;BME280;4187;42.778;23.242;2022-08-23T03:58:20;94779.41;;;18.61;100.00
8298;BME280;4187;42.778;23.242;2022-08-23T04:00:49;94786.41;;;18.62;100.00
8298;BME280;4187;42.778;23.242;2022-08-23T04:03:16;94792.59;;;18.62;100.00
8298;BME280;4187;42.778;23.242;2022-08-23T04:05:42;94800.59;;;18.62;100.00
8298;BME280;4187;42.778;23.242;2022-08-23T04:08:10;94812.53;;;18.66;100.00
8298;BME280;4187;42.778;23.242;2022-08-23T04:10:37;94824.66;;;18.69;100.00
8298;BME280;4187;42.778;23.242;2022-08-23T04:13:04;94819.31;;;18.69;100.00
8298;BME280;4187;42.778;23.242;2022-08-23T04:15:32;94832.88;;;18.74;100.00
8298;BME280;4187;42.778;23.242;2022-08-23T04:18:01;94802.44;;;18.55;100.00
8298;BME280;4187;42.778;23.242;2022-08-23T04:20:28;94828.97;;;18.70;100.00
8298;BME280;4187;42.778;23.242;2022-08-23T04:22:55;94838.03;;;18.75;100.00
8298;BME280;4187;42.778;23.242;2022-08-23T04:25:22;94845.63;;;18.65;100.00
8298;BME280;4187;42.778;23.242;2022-08-23T04:27:49;94843.97;;;18.58;100.00
8298;BME280;4187;42.778;23.242;2022-08-23T04:30:16;94841.69;;;18.48;100.00
8298;BME280;4187;42.778;23.242;2022-08-23T04:32:45;94840.69;;;18.49;100.00
8298;BME280;4187;42.778;23.242;2022-08-23T04:35:13;94845.97;;;18.42;100.00
8298;BME280;4187;42.778;23.242;2022-08-23T04:37:40;94844.72;;;18.38;100.00
8298;BME280;4187;42.778;23.242;2022-08-23T04:40:08;94848.88;;;18.41;100.00
8298;BME280;4187;42.778;23.242;2022-08-23T04:42:53;94841.88;;;18.40;100.00
8298;BME280;4187;42.778;23.242;2022-08-23T04:45:20;94848.72;;;18.49;100.00
8298;BME280;4187;42.778;23.242;2022-08-23T04:47:46;94846.63;;;18.58;100.00
8298;BME280;4187;42.778;23.242;2022-08-23T04:50:15;94852.81;;;18.58;100.00
8298;BME280;4187;42.778;23.242;2022-08-23T04:52:42;94850.16;;;18.52;100.00
8298;BME280;4187;42.778;23.242;2022-08-23T04:55:09;94847.03;;;18.55;100.00
8298;BME280;4187;42.778;23.242;2022-08-23T04:57:37;94847.47;;;18.58;100.00
8298;BME280;4187;42.778;23.242;2022-08-23T05:00:08;94849.94;;;18.66;100.00
8298;BME280;4187;42.778;23.242;2022-08-23T05:02:37;94829.59;;;18.59;100.00
8298;BME280;4187;42.778;23.242;2022-08-23T05:05:04;94848.69;;;18.82;100.00
8298;BME280;4187;42.778;23.242;2022-08-23T05:07:33;94850.13;;;18.84;100.00
8298;BME280;4187;42.778;23.242;2022-08-23T05:10:00;94861.88;;;18.90;100.00
8298;BME280;4187;42.778;23.242;2022-08-23T05:12:26;94855.69;;;18.96;100.00
8298;BME280;4187;42.778;23.242;2022-08-23T05:14:54;94846.88;;;19.02;100.00
8298;BME280;4187;42.778;23.242;2022-08-23T05:17:20;94853.25;;;19.07;100.00
8298;BME280;4187;42.778;23.242;2022-08-23T05:19:47;94858.56;;;19.14;100.00
8298;BME280;4187;42.778;23.242;2022-08-23T05:22:14;94867.63;;;19.20;100.00
8298;BME280;4187;42.778;23.242;2022-08-23T05:24:42;94863.28;;;19.25;100.00
8298;BME280;4187;42.778;23.242;2022-08-23T05:27:09;94871.09;;;19.33;100.00
8298;BME280;4187;42.778;23.242;2022-08-23T05:29:36;94872.97;;;19.39;100.00
8298;BME280;4187;42.778;23.242;2022-08-23T05:32:03;94876.88;;;19.50;100.00
8298;BME280;4187;42.778;23.242;2022-08-23T05:34:30;94875.03;;;19.57;100.00
8298;BME280;4187;42.778;23.242;2022-08-23T05:36:57;94882.19;;;19.63;100.00
8298;BME280;4187;42.778;23.242;2022-08-23T05:39:24;94885.03;;;19.75;100.00
8298;BME280;4187;42.778;23.242;2022-08-23T05:41:52;94883.19;;;19.75;100.00
8298;BME280;4187;42.778;23.242;2022-08-23T05:44:19;94887.72;;;19.81;100.00
8298;BME280;4187;42.778;23.242;2022-08-23T05:46:46;94886.44;;;19.90;100.00
8298;BME280;4187;42.778;23.242;2022-08-23T05:49:13;94889.50;;;20.00;100.00
8298;BME280;4187;42.778;23.242;2022-08-23T05:51:39;94890.28;;;20.14;100.00
8298;BME280;4187;42.778;23.242;2022-08-23T05:54:07;94886.72;;;20.20;100.00
8298;BME280;4187;42.778;23.242;2022-08-23T05:56:37;94889.41;;;20.26;100.00
8298;BME280;4187;42.778;23.242;2022-08-23T05:59:09;94877.63;;;20.34;100.00
8298;BME280;4187;42.778;23.242;2022-08-23T06:01:37;94868.75;;;20.34;100.00
8298;BME280;4187;42.778;23.242;2022-08-23T06:04:07;94879.03;;;20.43;100.00
8298;BME280;4187;42.778;23.242;2022-08-23T06:06:36;94875.88;;;20.53;100.00
8298;BME280;4187;42.778;23.242;2022-08-23T06:09:05;94887.38;;;20.60;100.00
8298;BME280;4187;42.778;23.242;2022-08-23T06:11:32;94895.81;;;20.63;100.00
8298;BME280;4187;42.778;23.242;2022-08-23T06:14:01;94891.25;;;20.70;100.00
8298;BME280;4187;42.778;23.242;2022-08-23T06:16:32;94902.34;;;20.74;100.00
8298;BME280;4187;42.778;23.242;2022-08-23T06:19:00;94903.56;;;20.78;100.00
8298;BME280;4187;42.778;23.242;2022-08-23T06:21:28;94881.53;;;20.69;100.00
8298;BME280;4187;42.778;23.242;2022-08-23T06:23:56;94916.03;;;20.97;100.00
8298;BME280;4187;42.778;23.242;2022-08-23T06:26:26;94923.13;;;21.16;100.00
8298;BME280;4187;42.778;23.242;2022-08-23T06:28:57;94931.28;;;21.28;100.00
8298;BME280;4187;42.778;23.242;2022-08-23T06:31:26;94926.84;;;21.40;100.00
8298;BME280;4187;42.778;23.242;2022-08-23T06:34:17;94939.34;;;21.53;100.00
8298;BME280;4187;42.778;23.242;2022-08-23T06:36:45;94935.22;;;21.75;100.00
8298;BME280;4187;42.778;23.242;2022-08-23T06:39:14;94937.72;;;21.94;100.00
8298;BME280;4187;42.778;23.242;2022-08-23T06:41:41;94947.66;;;22.12;100.00
8298;BME280;4187;42.778;23.242;2022-08-23T06:44:08;94953.50;;;22.27;100.00
8298;BME280;4187;42.778;23.242;2022-08-23T06:46:36;94946.31;;;22.39;100.00
8298;BME280;4187;42.778;23.242;2022-08-23T06:49:04;94932.47;;;22.54;100.00
8298;BME280;4187;42.778;23.242;2022-08-23T06:51:35;94936.69;;;22.68;100.00
8298;BME280;4187;42.778;23.242;2022-08-23T06:54:05;94937.53;;;22.80;100.00
8298;BME280;4187;42.778;23.242;2022-08-23T06:56:32;94943.69;;;22.99;100.00
8298;BME280;4187;42.778;23.242;2022-08-23T06:58:59;94943.38;;;23.18;100.00
8298;BME280;4187;42.778;23.242;2022-08-23T07:01:34;94944.16;;;23.37;100.00
8298;BME280;4187;42.778;23.242;2022-08-23T07:04:04;94945.59;;;23.51;100.00
8298;BME280;4187;42.778;23.242;2022-08-23T07:06:33;94949.38;;;23.73;100.00
8298;BME280;4187;42.778;23.242;2022-08-23T07:09:00;94944.69;;;23.92;100.00
8298;BME280;4187;42.778;23.242;2022-08-23T07:11:28;94925.09;;;23.97;100.00
8298;BME280;4187;42.778;23.242;2022-08-23T07:13:56;94951.47;;;24.18;100.00
8298;BME280;4187;42.778;23.242;2022-08-23T07:16:23;94936.09;;;24.07;100.00
8298;BME280;4187;42.778;23.242;2022-08-23T07:18:50;94934.69;;;24.04;100.00
8298;BME280;4187;42.778;23.242;2022-08-23T07:21:20;94960.13;;;24.20;100.00
8298;BME280;4187;42.778;23.242;2022-08-23T07:23:48;94962.38;;;24.23;100.00
8298;BME280;4187;42.778;23.242;2022-08-23T07:26:16;94969.06;;;24.20;100.00
8298;BME280;4187;42.778;23.242;2022-08-23T07:28:43;94964.84;;;24.24;100.00
8298;BME280;4187;42.778;23.242;2022-08-23T07:31:13;94966.56;;;24.30;100.00
8298;BME280;4187;42.778;23.242;2022-08-23T07:33:41;94965.03;;;24.46;100.00
8298;BME280;4187;42.778;23.242;2022-08-23T07:36:11;94956.78;;;24.64;100.00
8298;BME280;4187;42.778;23.242;2022-08-23T07:38:38;94962.00;;;24.82;100.00
8298;BME280;4187;42.778;23.242;2022-08-23T07:41:06;94963.72;;;25.00;100.00
8298;BME280;4187;42.778;23.242;2022-08-23T07:43:33;94963.91;;;25.10;100.00
8298;BME280;4187;42.778;23.242;2022-08-23T07:46:01;94961.38;;;25.20;100.00
8298;BME280;4187;42.778;23.242;2022-08-23T07:48:30;94961.41;;;25.37;100.00
8298;BME280;4187;42.778;23.242;2022-08-23T07:50:59;94969.91;;;25.57;100.00
8298;BME280;4187;42.778;23.242;2022-08-23T07:53:27;94959.66;;;25.59;100.00
8298;BME280;4187;42.778;23.242;2022-08-23T07:55:56;94979.16;;;25.61;100.00
8298;BME280;4187;42.778;23.242;2022-08-23T07:58:25;94973.69;;;25.73;100.00
8298;BME280;4187;42.778;23.242;2022-08-23T08:00:52;94970.72;;;25.91;100.00
8298;BME280;4187;42.778;23.242;2022-08-23T08:03:19;94967.44;;;26.05;100.00
8298;BME280;4187;42.778;23.242;2022-08-23T08:05:46;94976.09;;;26.07;100.00
8298;BME280;4187;42.778;23.242;2022-08-23T08:08:13;94971.38;;;26.14;98.94
8298;BME280;4187;42.778;23.242;2022-08-23T08:10:41;94975.28;;;26.24;99.48
8298;BME280;4187;42.778;23.242;2022-08-23T08:13:09;94975.38;;;26.29;99.84
8298;BME280;4187;42.778;23.242;2022-08-23T08:15:39;94974.03;;;26.31;98.09
8298;BME280;4187;42.778;23.242;2022-08-23T08:18:06;94977.56;;;26.32;97.55
8298;BME280;4187;42.778;23.242;2022-08-23T08:20:33;94974.81;;;26.27;99.57
8298;BME280;4187;42.778;23.242;2022-08-23T08:23:01;94975.84;;;26.26;98.64
8298;BME280;4187;42.778;23.242;2022-08-23T08:25:28;94987.28;;;26.28;96.87
8298;BME280;4187;42.778;23.242;2022-08-23T08:27:59;94985.56;;;26.22;96.61
8298;BME280;4187;42.778;23.242;2022-08-23T08:30:26;94988.06;;;26.11;95.97
8298;BME280;4187;42.778;23.242;2022-08-23T08:32:54;94987.59;;;26.14;97.43
8298;BME280;4187;42.778;23.242;2022-08-23T08:35:21;94991.59;;;26.12;97.11
8298;BME280;4187;42.778;23.242;2022-08-23T08:37:49;94990.13;;;26.04;93.77
8298;BME280;4187;42.778;23.242;2022-08-23T08:40:19;94982.28;;;26.03;92.85
8298;BME280;4187;42.778;23.242;2022-08-23T08:43:01;94973.41;;;26.07;93.75
8298;BME280;4187;42.778;23.242;2022-08-23T08:45:42;94978.50;;;26.21;94.08
8298;BME280;4187;42.778;23.242;2022-08-23T08:48:13;94971.38;;;26.14;91.89
8298;BME280;4187;42.778;23.242;2022-08-23T08:50:44;94968.00;;;26.07;91.25
8298;BME280;4187;42.778;23.242;2022-08-23T08:53:17;94966.94;;;26.08;95.21
8298;BME280;4187;42.778;23.242;2022-08-23T08:55:48;94960.66;;;25.86;94.47
8298;BME280;4187;42.778;23.242;2022-08-23T08:58:20;94954.75;;;25.89;93.72
8298;BME280;4187;42.778;23.242;2022-08-23T09:00:48;94957.94;;;26.20;98.71
8298;BME280;4187;42.778;23.242;2022-08-23T09:03:18;94968.81;;;26.25;92.54
8298;BME280;4187;42.778;23.242;2022-08-23T09:05:50;94955.03;;;26.09;92.58
8298;BME280;4187;42.778;23.242;2022-08-23T09:08:40;94958.16;;;26.18;94.51
8298;BME280;4187;42.778;23.242;2022-08-23T09:11:17;94956.19;;;26.30;92.12
8298;BME280;4187;42.778;23.242;2022-08-23T09:14:06;94958.47;;;26.38;90.99
8298;BME280;4187;42.778;23.242;2022-08-23T09:16:48;94950.72;;;26.47;91.54
8298;BME280;4187;42.778;23.242;2022-08-23T09:19:18;94946.28;;;26.57;93.70
8298;BME280;4187;42.778;23.242;2022-08-23T09:21:48;94949.31;;;26.66;89.92
8298;BME280;4187;42.778;23.242;2022-08-23T09:24:19;94938.88;;;26.74;92.21
8298;BME280;4187;42.778;23.242;2022-08-23T09:26:47;94927.69;;;26.88;92.75
8298;BME280;4187;42.778;23.242;2022-08-23T09:29:18;94943.09;;;27.36;94.92
8298;BME280;4187;42.778;23.242;2022-08-23T09:31:47;94933.13;;;27.68;87.46
8298;BME280;4187;42.778;23.242;2022-08-23T09:34:20;94932.91;;;28.11;90.11
8298;BME280;4187;42.778;23.242;2022-08-23T09:36:47;94916.22;;;28.39;86.80
8298;BME280;4187;42.778;23.242;2022-08-23T09:39:27;94918.88;;;28.76;83.08
8298;BME280;4187;42.778;23.242;2022-08-23T09:41:55;94886.25;;;28.66;79.38
8298;BME280;4187;42.778;23.242;2022-08-23T09:44:34;94933.38;;;29.17;83.67
8298;BME280;4187;42.778;23.242;2022-08-23T09:47:07;94928.84;;;29.28;79.49
8298;BME280;4187;42.778;23.242;2022-08-23T09:49:38;94931.47;;;29.02;75.46
8298;BME280;4187;42.778;23.242;2022-08-23T09:52:17;94929.69;;;28.71;76.69
8298;BME280;4187;42.778;23.242;2022-08-23T09:54:54;94880.28;;;28.69;82.29
8298;BME280;4187;42.778;23.242;2022-08-23T09:57:24;94920.16;;;29.36;82.49
8298;BME280;4187;42.778;23.242;2022-08-23T09:59:51;94926.41;;;29.51;78.24
8298;BME280;4187;42.778;23.242;2022-08-23T10:02:25;94934.56;;;29.61;77.92
8298;BME280;4187;42.778;23.242;2022-08-23T10:04:59;94931.56;;;29.28;77.47
8298;BME280;4187;42.778;23.242;2022-08-23T10:07:33;94886.88;;;29.03;78.06
8298;BME280;4187;42.778;23.242;2022-08-23T10:10:20;94925.88;;;29.49;73.84
8298;BME280;4187;42.778;23.242;2022-08-23T10:12:49;94902.72;;;29.42;75.59
8298;BME280;4187;42.778;23.242;2022-08-23T10:15:16;94928.06;;;29.68;79.96
8298;BME280;4187;42.778;23.242;2022-08-23T10:17:50;94929.69;;;29.99;77.30
8298;BME280;4187;42.778;23.242;2022-08-23T10:20:30;94932.91;;;30.26;75.40
8298;BME280;4187;42.778;23.242;2022-08-23T10:23:08;94937.53;;;30.46;73.50
8298;BME280;4187;42.778;23.242;2022-08-23T10:25:46;94935.59;;;30.51;75.54
8298;BME280;4187;42.778;23.242;2022-08-23T10:28:20;94935.28;;;30.68;72.66
8298;BME280;4187;42.778;23.242;2022-08-23T10:31:13;94939.56;;;30.89;72.99
8298;BME280;4187;42.778;23.242;2022-08-23T10:34:05;94934.63;;;30.96;70.24
8298;BME280;4187;42.778;23.242;2022-08-23T10:36:46;94935.44;;;31.02;71.52
8298;BME280;4187;42.778;23.242;2022-08-23T10:39:21;94937.09;;;30.88;68.34
8298;BME280;4187;42.778;23.242;2022-08-23T10:41:55;94923.22;;;30.84;69.72
8298;BME280;4187;42.778;23.242;2022-08-23T10:44:28;94923.19;;;30.99;71.83
8298;BME280;4187;42.778;23.242;2022-08-23T10:47:17;94923.88;;;31.25;74.54
8298;BME280;4187;42.778;23.242;2022-08-23T10:49:50;94922.13;;;31.39;73.63
8298;BME280;4187;42.778;23.242;2022-08-23T10:52:22;94932.56;;;31.27;70.05
8298;BME280;4187;42.778;23.242;2022-08-23T10:54:55;94908.19;;;30.97;68.31
8298;BME280;4187;42.778;23.242;2022-08-23T10:57:35;94916.72;;;30.75;68.28
8298;BME280;4187;42.778;23.242;2022-08-23T11:00:05;94920.78;;;30.77;71.66
8298;BME280;4187;42.778;23.242;2022-08-23T11:02:38;94919.16;;;30.82;71.17
8298;BME280;4187;42.778;23.242;2022-08-23T11:05:19;94913.94;;;30.85;73.04
8298;BME280;4187;42.778;23.242;2022-08-23T11:07:58;94921.84;;;30.87;70.62
8298;BME280;4187;42.778;23.242;2022-08-23T11:10:29;94912.84;;;30.91;73.04
8298;BME280;4187;42.778;23.242;2022-08-23T11:13:00;94915.28;;;30.98;70.68
8298;BME280;4187;42.778;23.242;2022-08-23T11:15:36;94917.69;;;31.04;71.24
8298;BME280;4187;42.778;23.242;2022-08-23T11:18:06;94922.56;;;31.12;72.02
8298;BME280;4187;42.778;23.242;2022-08-23T11:21:05;94905.44;;;31.02;69.30
8298;BME280;4187;42.778;23.242;2022-08-23T11:43:24;94906.00;;;31.43;70.12
8298;BME280;4187;42.778;23.242;2022-08-23T11:45:52;94905.13;;;31.13;67.34
8298;BME280;4187;42.778;23.242;2022-08-23T11:48:37;94894.09;;;31.28;73.21
8298;BME280;4187;42.778;23.242;2022-08-23T11:51:23;94905.91;;;31.19;66.45
8298;BME280;4187;42.778;23.242;2022-08-23T11:54:20;94903.84;;;30.91;65.31
8298;BME280;4187;42.778;23.242;2022-08-23T11:57:08;94898.56;;;30.50;68.75
8298;BME280;4187;42.778;23.242;2022-08-23T12:00:00;94897.75;;;30.45;71.82
8298;BME280;4187;42.778;23.242;2022-08-23T12:02:42;94901.72;;;30.77;73.25
8298;BME280;4187;42.778;23.242;2022-08-23T12:05:26;94903.00;;;31.00;64.93
8298;BME280;4187;42.778;23.242;2022-08-23T12:11:24;94881.22;;;30.90;64.74
8298;BME280;4187;42.778;23.242;2022-08-23T12:14:31;94898.38;;;31.01;68.76
8298;BME280;4187;42.778;23.242;2022-08-23T12:17:04;94904.78;;;31.25;69.57
8298;BME280;4187;42.778;23.242;2022-08-23T12:19:35;94886.47;;;31.30;67.10
8298;BME280;4187;42.778;23.242;2022-08-23T12:22:10;94904.91;;;31.49;60.05
8298;BME280;4187;42.778;23.242;2022-08-23T12:24:42;94904.31;;;31.57;59.21
8298;BME280;4187;42.778;23.242;2022-08-23T12:27:20;94897.94;;;31.66;66.05
8298;BME280;4187;42.778;23.242;2022-08-23T12:29:56;94885.00;;;31.82;66.62
8298;BME280;4187;42.778;23.242;2022-08-23T12:32:33;94888.66;;;31.28;68.88
8298;BME280;4187;42.778;23.242;2022-08-23T12:35:15;94883.94;;;30.90;73.25
8298;BME280;4187;42.778;23.242;2022-08-23T12:37:50;94867.69;;;30.75;75.34
8298;BME280;4187;42.778;23.242;2022-08-23T12:40:23;94893.31;;;30.69;74.03
8298;BME280;4187;42.778;23.242;2022-08-23T12:43:02;94884.47;;;30.23;77.09
8298;BME280;4187;42.778;23.242;2022-08-23T12:45:37;94876.84;;;30.20;76.04
8298;BME280;4187;42.778;23.242;2022-08-23T12:48:07;94871.97;;;30.17;75.77
8298;BME280;4187;42.778;23.242;2022-08-23T12:50:37;94867.09;;;30.04;76.40
8298;BME280;4187;42.778;23.242;2022-08-23T12:53:07;94871.72;;;30.08;77.37
8298;BME280;4187;42.778;23.242;2022-08-23T12:55:38;94875.28;;;29.89;78.17
8298;BME280;4187;42.778;23.242;2022-08-23T12:58:07;94864.94;;;29.86;78.82
8298;BME280;4187;42.778;23.242;2022-08-23T13:00:38;94865.75;;;29.66;76.90
8298;BME280;4187;42.778;23.242;2022-08-23T13:03:15;94866.59;;;29.56;79.69
8298;BME280;4187;42.778;23.242;2022-08-23T13:05:46;94861.69;;;29.38;79.72
8298;BME280;4187;42.778;23.242;2022-08-23T13:08:17;94857.63;;;29.36;79.97
8298;BME280;4187;42.778;23.242;2022-08-23T13:10:46;94867.13;;;29.43;79.61
8298;BME280;4187;42.778;23.242;2022-08-23T13:13:25;94866.03;;;29.39;80.13
8298;BME280;4187;42.778;23.242;2022-08-23T13:15:54;94860.06;;;29.32;78.17
8298;BME280;4187;42.778;23.242;2022-08-23T13:18:29;94863.59;;;29.28;79.58
8298;BME280;4187;42.778;23.242;2022-08-23T13:21:15;94834.47;;;29.08;80.11
8298;BME280;4187;42.778;23.242;2022-08-23T13:23:43;94847.53;;;29.26;80.24
8298;BME280;4187;42.778;23.242;2022-08-23T13:26:37;94852.41;;;29.14;76.67
8298;BME280;4187;42.778;23.242;2022-08-23T13:29:07;94854.25;;;28.88;77.36
8298;BME280;4187;42.778;23.242;2022-08-23T13:31:53;94847.19;;;28.82;77.48
8298;BME280;4187;42.778;23.242;2022-08-23T13:34:33;94844.75;;;28.86;78.82
8298;BME280;4187;42.778;23.242;2022-08-23T13:37:02;94809.94;;;28.68;78.46
8298;BME280;4187;42.778;23.242;2022-08-23T13:39:31;94829.81;;;28.78;76.71
8298;BME280;4187;42.778;23.242;2022-08-23T13:41:58;94830.63;;;28.84;78.06
8298;BME280;4187;42.778;23.242;2022-08-23T13:44:26;94832.28;;;28.95;79.13
8298;BME280;4187;42.778;23.242;2022-08-23T13:46:56;94844.22;;;29.04;81.07
8298;BME280;4187;42.778;23.242;2022-08-23T13:49:25;94834.47;;;29.03;82.37